createdAt,value
2019-05-18T00:01:16.753Z,98866.34
2019-05-18T00:02:51.884Z,98869.97
2019-05-18T00:04:26.094Z,98874.98
2019-05-18T00:06:00.937Z,98878.86
2019-05-18T00:07:35.163Z,98882.73
2019-05-18T00:09:10.436Z,98879.83
2019-05-18T00:10:44.668Z,98884.86
2019-05-18T00:12:19.512Z,98887.33
2019-05-18T00:13:53.780Z,98887.39
2019-05-18T00:15:29.019Z,98890.36
2019-05-18T00:17:03.245Z,98891.98
2019-05-18T00:18:38.045Z,98888.50
2019-05-18T00:20:13.019Z,98887.03
2019-05-18T00:21:48.784Z,98877.70
2019-05-18T00:23:23.008Z,98877.91
2019-05-18T00:24:58.193Z,98874.29
2019-05-18T00:26:32.433Z,98867.61
2019-05-18T00:28:07.333Z,98876.27
2019-05-18T00:29:41.623Z,98874.08
2019-05-18T00:31:16.391Z,98872.64
2019-05-18T00:32:50.680Z,98876.84
2019-05-18T00:34:25.592Z,98876.98
2019-05-18T00:35:59.853Z,98872.66
2019-05-18T00:37:34.702Z,98866.52
2019-05-18T00:39:08.912Z,98863.06
2019-05-18T00:40:44.657Z,98856.56
2019-05-18T00:42:20.559Z,98858.30
2019-05-18T00:43:55.337Z,98855.75
2019-05-18T00:45:29.554Z,98862.88
2019-05-18T00:47:04.859Z,98862.05
2019-05-18T00:48:39.113Z,98862.62
2019-05-18T00:50:14.585Z,98859.36
2019-05-18T00:51:50.264Z,98851.00
2019-05-18T00:53:25.385Z,98854.30
2019-05-18T00:54:59.657Z,98854.54
2019-05-18T00:56:34.909Z,98850.54
2019-05-18T00:58:09.134Z,98855.80
2019-05-18T00:59:44.371Z,98862.56
2019-05-18T01:01:19.364Z,98865.91
2019-05-18T01:02:54.228Z,98868.83
2019-05-18T01:04:28.404Z,98871.59
2019-05-18T01:06:03.564Z,98869.57
2019-05-18T01:07:37.808Z,98866.31
2019-05-18T01:09:12.613Z,98865.16
2019-05-18T01:10:46.832Z,98861.97
2019-05-18T01:12:22.235Z,98862.59
2019-05-18T01:13:56.495Z,98851.64
2019-05-18T01:15:31.277Z,98862.18
2019-05-18T01:17:05.579Z,98860.80
2019-05-18T01:18:40.707Z,98863.11
2019-05-18T01:20:16.191Z,98868.75
2019-05-18T01:21:51.056Z,98868.80
2019-05-18T01:23:26.928Z,98867.48
2019-05-18T01:25:02.353Z,98867.69
2019-05-18T01:26:36.661Z,98867.19
2019-05-18T01:28:11.889Z,98863.38
2019-05-18T01:29:46.093Z,98870.84
2019-05-18T01:31:21.338Z,98870.16
2019-05-18T01:32:55.601Z,98873.33
2019-05-18T01:34:30.371Z,98872.05
2019-05-18T01:36:06.119Z,98874.94
2019-05-18T01:37:41.358Z,98871.77
2019-05-18T01:39:15.572Z,98873.51
2019-05-18T01:40:50.361Z,98878.16
2019-05-18T01:42:24.650Z,98865.15
2019-05-18T01:43:59.709Z,98871.69
2019-05-18T01:45:33.930Z,98864.53
2019-05-18T01:47:08.755Z,98868.06
2019-05-18T01:48:43.044Z,98871.34
2019-05-18T01:50:18.516Z,98872.61
2019-05-18T01:51:52.825Z,98869.02
2019-05-18T01:53:27.642Z,98867.49
2019-05-18T01:55:02.041Z,98867.92
2019-05-18T01:56:37.303Z,98868.22
2019-05-18T01:58:11.576Z,98864.42
2019-05-18T01:59:46.824Z,98870.27
2019-05-18T02:01:21.041Z,98864.76
2019-05-18T02:02:56.868Z,98862.77
2019-05-18T02:04:31.132Z,98864.72
2019-05-18T02:06:05.917Z,98864.35
2019-05-18T02:07:40.196Z,98865.05
2019-05-18T02:09:15.149Z,98867.97
2019-05-18T02:10:49.434Z,98871.39
2019-05-18T02:12:24.216Z,98869.16
2019-05-18T02:13:58.442Z,98874.30
2019-05-18T02:15:33.949Z,98866.77
2019-05-18T02:17:08.201Z,98867.66
2019-05-18T02:18:42.978Z,98866.73
2019-05-18T02:20:17.677Z,98869.95
2019-05-18T02:21:53.014Z,98866.73
2019-05-18T02:23:27.243Z,98870.61
2019-05-18T02:25:02.083Z,98873.63
2019-05-18T02:26:36.297Z,98868.84
2019-05-18T02:28:11.589Z,98869.67
2019-05-18T02:29:45.817Z,98869.16
2019-05-18T02:31:21.249Z,98871.99
2019-05-18T02:32:55.519Z,98874.09
2019-05-18T02:34:30.573Z,98879.35
2019-05-18T02:36:04.827Z,98875.22
2019-05-18T02:37:39.597Z,98866.39
2019-05-18T02:39:13.861Z,98869.66
2019-05-18T02:40:50.921Z,98871.48
2019-05-18T02:42:25.120Z,98874.56
2019-05-18T02:43:59.889Z,98873.13
2019-05-18T02:45:34.193Z,98868.23
2019-05-18T02:47:09.887Z,98869.55
2019-05-18T02:48:49.775Z,98876.88
2019-05-18T02:50:20.528Z,98875.48
2019-05-18T02:51:54.744Z,98881.25
2019-05-18T02:53:29.977Z,98886.20
2019-05-18T02:55:05.861Z,98885.67
2019-05-18T02:56:40.640Z,98888.19
2019-05-18T02:58:14.874Z,98882.56
2019-05-18T02:59:50.207Z,98886.44
2019-05-18T03:01:24.533Z,98883.84
2019-05-18T03:02:59.310Z,98884.95
2019-05-18T03:04:33.604Z,98881.38
2019-05-18T03:06:08.363Z,98884.23
2019-05-18T03:07:42.778Z,98881.68
2019-05-18T03:09:17.361Z,98886.70
2019-05-18T03:10:53.221Z,98886.51
2019-05-18T03:12:28.507Z,98883.59
2019-05-18T03:14:02.897Z,98884.12
2019-05-18T03:15:37.769Z,98885.12
2019-05-18T03:17:12.256Z,98889.15
2019-05-18T03:19:04.529Z,98891.38
2019-05-18T03:20:23.338Z,98893.77
2019-05-18T03:22:02.951Z,98896.13
2019-05-18T03:23:37.192Z,98900.17
2019-05-18T03:25:12.595Z,98899.47
2019-05-18T03:26:46.919Z,98895.89
2019-05-18T03:28:21.734Z,98898.41
2019-05-18T03:29:55.968Z,98902.33
2019-05-18T03:31:31.085Z,98894.42
2019-05-18T03:33:05.519Z,98898.50
2019-05-18T03:34:40.404Z,98896.66
2019-05-18T03:36:14.709Z,98898.17
2019-05-18T03:37:49.938Z,98903.16
2019-05-18T03:39:24.256Z,98902.38
2019-05-18T03:40:59.021Z,98905.50
2019-05-18T03:42:33.250Z,98898.17
2019-05-18T03:44:08.517Z,98902.84
2019-05-18T03:45:42.791Z,98905.59
2019-05-18T03:47:17.575Z,98904.39
2019-05-18T03:48:52.303Z,98908.16
2019-05-18T03:50:27.500Z,98910.52
2019-05-18T03:52:01.730Z,98908.82
2019-05-18T03:53:36.518Z,98914.24
2019-05-18T03:55:10.762Z,98912.61
2019-05-18T03:56:45.978Z,98912.53
2019-05-18T03:58:20.274Z,98908.48
2019-05-18T03:59:55.056Z,98848.60
2019-05-18T04:01:29.282Z,98915.17
2019-05-18T04:03:04.458Z,98910.34
2019-05-18T04:04:39.176Z,98911.29
2019-05-18T04:06:13.961Z,98914.26
2019-05-18T04:07:49.875Z,98909.67
2019-05-18T04:09:25.073Z,98910.59
2019-05-18T04:11:00.677Z,98913.08
2019-05-18T04:12:35.477Z,98920.25
2019-05-18T04:14:09.694Z,98917.88
2019-05-18T04:15:44.878Z,98917.23
2019-05-18T04:17:19.085Z,98922.14
2019-05-18T04:18:53.877Z,98924.75
2019-05-18T04:20:28.303Z,98919.13
2019-05-18T04:22:04.230Z,98926.26
2019-05-18T04:23:38.445Z,98924.82
2019-05-18T04:25:13.314Z,98927.98
2019-05-18T04:26:47.535Z,98923.30
2019-05-18T04:28:22.641Z,98922.39
2019-05-18T04:29:56.877Z,98863.28
2019-05-18T04:31:32.534Z,98923.58
2019-05-18T04:33:07.165Z,98928.78
2019-05-18T04:34:42.140Z,98929.31
2019-05-18T04:36:16.964Z,98930.38
2019-05-18T04:37:51.796Z,98931.33
2019-05-18T04:39:26.012Z,98930.02
2019-05-18T04:41:00.918Z,98928.45
2019-05-18T04:42:35.148Z,98929.52
2019-05-18T04:44:09.950Z,98927.58
2019-05-18T04:45:44.185Z,98930.88
2019-05-18T04:47:19.184Z,98931.55
2019-05-18T04:48:53.518Z,98923.69
2019-05-18T04:50:28.381Z,98921.93
2019-05-18T04:52:02.626Z,98920.42
2019-05-18T04:53:38.057Z,98926.77
2019-05-18T04:55:12.429Z,98924.41
2019-05-18T04:56:47.278Z,98922.73
2019-05-18T04:58:21.509Z,98925.63
2019-05-18T04:59:56.844Z,98923.10
2019-05-18T05:01:31.645Z,98918.45
2019-05-18T05:03:06.436Z,98914.02
2019-05-18T05:04:40.644Z,98912.51
2019-05-18T05:06:15.830Z,98911.30
2019-05-18T05:07:52.013Z,98892.73
2019-05-18T05:09:26.852Z,98907.44
2019-05-18T05:11:01.163Z,98902.41
2019-05-18T05:12:36.248Z,98907.62
2019-05-18T05:14:10.461Z,98902.18
2019-05-18T05:15:45.241Z,98907.28
2019-05-18T05:17:19.465Z,98906.91
2019-05-18T05:18:54.200Z,98906.03
2019-05-18T05:20:28.492Z,98897.27
2019-05-18T05:22:03.238Z,98906.70
2019-05-18T05:23:37.982Z,98898.30
2019-05-18T05:25:13.094Z,98899.06
2019-05-18T05:26:48.220Z,98899.11
2019-05-18T05:28:22.992Z,98896.45
2019-05-18T05:29:57.296Z,98900.88
2019-05-18T05:31:32.519Z,98898.30
2019-05-18T05:33:08.395Z,98897.17
2019-05-18T05:34:43.248Z,98898.27
2019-05-18T05:36:17.583Z,98891.64
2019-05-18T05:37:52.698Z,98897.11
2019-05-18T05:39:27.269Z,98898.73
2019-05-18T05:41:02.259Z,98889.52
2019-05-18T05:42:36.669Z,98894.48
2019-05-18T05:44:11.663Z,98894.23
2019-05-18T05:45:45.996Z,98896.39
2019-05-18T05:47:20.789Z,98886.02
2019-05-18T05:48:55.000Z,98887.68
2019-05-18T05:50:35.768Z,98886.46
2019-05-18T05:52:07.541Z,98883.67
2019-05-18T05:53:42.370Z,98886.88
2019-05-18T05:55:16.902Z,98881.14
2019-05-18T05:56:52.109Z,98879.04
2019-05-18T05:58:26.338Z,98877.94
2019-05-18T06:00:01.248Z,98873.63
2019-05-18T06:01:35.467Z,98870.23
2019-05-18T06:03:10.580Z,98872.39
2019-05-18T06:04:44.822Z,98868.17
2019-05-18T06:06:22.976Z,98868.81
2019-05-18T06:07:55.583Z,98862.74
2019-05-18T06:09:30.801Z,98863.38
2019-05-18T06:11:06.755Z,98862.77
2019-05-18T06:12:41.578Z,98855.38
2019-05-18T06:14:15.799Z,98850.77
2019-05-18T06:15:51.125Z,98845.39
2019-05-18T06:17:25.337Z,98846.00
2019-05-18T06:19:00.158Z,98856.09
2019-05-18T06:20:34.441Z,98855.02
2019-05-18T06:22:10.912Z,98859.25
2019-05-18T06:23:45.122Z,98858.22
2019-05-18T06:25:19.939Z,98855.95
2019-05-18T06:26:54.452Z,98851.73
2019-05-18T06:28:29.496Z,98844.98
2019-05-18T06:30:06.633Z,98842.05
2019-05-18T06:31:41.433Z,98851.41
2019-05-18T06:33:17.219Z,98848.69
2019-05-18T06:34:53.500Z,98853.13
2019-05-18T06:36:27.792Z,98850.77
2019-05-18T06:38:03.867Z,98849.67
2019-05-18T06:39:38.118Z,98852.74
2019-05-18T06:41:13.354Z,98851.70
2019-05-18T06:42:49.096Z,98852.05
2019-05-18T06:44:23.944Z,98856.13
2019-05-18T06:45:58.160Z,98853.03
2019-05-18T06:47:33.720Z,98844.05
2019-05-18T06:49:07.929Z,98846.81
2019-05-18T06:50:44.124Z,98851.09
2019-05-18T06:52:19.800Z,98858.16
2019-05-18T06:53:54.692Z,98856.38
2019-05-18T06:55:28.949Z,98861.23
2019-05-18T06:57:04.778Z,98860.29
2019-05-18T06:58:40.687Z,98856.41
2019-05-18T07:00:17.157Z,98856.27
2019-05-18T07:01:51.437Z,98859.33
2019-05-18T07:03:26.228Z,98858.48
2019-05-18T07:05:00.494Z,98865.02
2019-05-18T07:06:36.619Z,98861.46
2019-05-18T07:08:10.890Z,98862.95
2019-05-18T07:09:45.661Z,98862.80
2019-05-18T07:11:19.924Z,98863.42
2019-05-18T07:12:55.282Z,98859.02
2019-05-18T07:14:29.542Z,98867.23
2019-05-18T07:16:04.273Z,98865.80
2019-05-18T07:17:39.537Z,98861.68
2019-05-18T07:19:14.617Z,98869.73
2019-05-18T07:20:48.824Z,98872.73
2019-05-18T07:22:23.724Z,98873.91
2019-05-18T07:23:57.937Z,98872.31
2019-05-18T07:25:32.949Z,98870.86
2019-05-18T07:27:07.222Z,98868.13
2019-05-18T07:28:42.097Z,98868.75
2019-05-18T07:30:16.713Z,98868.84
2019-05-18T07:31:51.741Z,98867.63
2019-05-18T07:33:26.047Z,98872.45
2019-05-18T07:35:00.813Z,98865.78
2019-05-18T07:36:35.013Z,98869.14
2019-05-18T07:38:11.439Z,98870.52
2019-05-18T07:39:46.046Z,98865.87
2019-05-18T07:41:20.878Z,98863.05
2019-05-18T07:42:55.388Z,98870.50
2019-05-18T07:44:31.792Z,98866.77
2019-05-18T07:46:08.688Z,98865.13
2019-05-18T07:47:42.537Z,98861.52
2019-05-18T07:49:17.124Z,98859.53
2019-05-18T07:50:51.917Z,98857.73
2019-05-18T07:52:26.169Z,98863.36
2019-05-18T07:54:01.005Z,98850.63
2019-05-18T07:55:35.616Z,98861.61
2019-05-18T07:57:10.417Z,98857.19
2019-05-18T07:58:44.714Z,98856.56
2019-05-18T08:00:19.592Z,98858.27
2019-05-18T08:01:54.180Z,98856.52
2019-05-18T08:03:29.301Z,98858.56
2019-05-18T08:05:06.143Z,98850.98
2019-05-18T08:06:40.916Z,98855.88
2019-05-18T08:08:15.733Z,98851.29
2019-05-18T08:09:50.505Z,98847.64
2019-05-18T08:11:24.758Z,98851.28
2019-05-18T08:12:59.632Z,98850.54
2019-05-18T08:14:37.071Z,98849.87
2019-05-18T08:16:11.909Z,98847.40
2019-05-18T08:17:46.125Z,98850.58
2019-05-18T08:19:22.361Z,98851.55
2019-05-18T08:20:57.179Z,98848.54
2019-05-18T08:22:32.352Z,98847.82
2019-05-18T08:24:06.651Z,98842.90
2019-05-18T08:25:41.448Z,98840.28
2019-05-18T08:27:15.836Z,98842.16
2019-05-18T08:28:51.165Z,98840.53
2019-05-18T08:30:25.484Z,98840.23
2019-05-18T08:32:00.259Z,98836.08
2019-05-18T08:33:34.732Z,98838.93
2019-05-18T08:35:10.898Z,98839.11
2019-05-18T08:36:45.260Z,98837.69
2019-05-18T08:38:20.026Z,98839.61
2019-05-18T08:39:54.639Z,98827.86
2019-05-18T08:41:29.398Z,98835.78
2019-05-18T08:43:03.646Z,98833.32
2019-05-18T08:44:38.701Z,98830.05
2019-05-18T08:46:13.222Z,98830.97
2019-05-18T08:47:47.998Z,98828.52
2019-05-18T08:49:22.265Z,98829.50
2019-05-18T08:50:57.049Z,98826.61
2019-05-18T08:52:31.376Z,98826.11
2019-05-18T08:54:06.262Z,98822.98
2019-05-18T08:55:40.470Z,98828.80
2019-05-18T08:57:15.235Z,98824.73
2019-05-18T08:58:49.853Z,98823.92
2019-05-18T09:00:27.373Z,98824.28
2019-05-18T09:02:01.601Z,98813.14
2019-05-18T09:03:36.436Z,98810.77
2019-05-18T09:05:11.398Z,98813.94
2019-05-18T09:06:46.212Z,98814.30
2019-05-18T09:08:20.420Z,98807.16
2019-05-18T09:09:55.212Z,98810.42
2019-05-18T09:11:29.761Z,98811.78
2019-05-18T09:13:04.620Z,98810.38
2019-05-18T09:14:38.901Z,98813.56
2019-05-18T09:16:13.780Z,98801.25
2019-05-18T09:17:48.345Z,98805.73
2019-05-18T09:19:23.177Z,98805.05
2019-05-18T09:20:57.404Z,98809.98
2019-05-18T09:22:32.216Z,98808.03
2019-05-18T09:24:08.160Z,98807.97
2019-05-18T09:25:42.997Z,98801.44
2019-05-18T09:27:18.664Z,98802.94
2019-05-18T09:28:53.974Z,98801.47
2019-05-18T09:30:28.669Z,98792.66
2019-05-18T09:32:03.524Z,98794.14
2019-05-18T09:33:37.729Z,98783.69
2019-05-18T09:35:13.052Z,98787.31
2019-05-18T09:36:47.552Z,98777.66
2019-05-18T09:38:22.329Z,98783.86
2019-05-18T09:39:56.556Z,98781.06
2019-05-18T09:41:31.362Z,98776.58
2019-05-18T09:43:06.017Z,98775.69
2019-05-18T09:44:40.791Z,98774.47
2019-05-18T09:46:15.615Z,98774.84
2019-05-18T09:47:50.469Z,98746.77
2019-05-18T09:49:25.416Z,98770.52
2019-05-18T09:51:00.250Z,98764.23
2019-05-18T09:52:45.047Z,98763.67
2019-05-18T09:54:12.389Z,98767.61
2019-05-18T09:55:46.971Z,98769.29
2019-05-18T09:57:21.739Z,98765.98
2019-05-18T09:58:57.448Z,98771.49
2019-05-18T10:00:38.741Z,98767.03
2019-05-18T10:02:08.700Z,98760.79
2019-05-18T10:03:43.468Z,98762.59
2019-05-18T10:05:17.744Z,98756.11
2019-05-18T10:06:52.563Z,98756.98
2019-05-18T10:08:27.176Z,98756.03
2019-05-18T10:10:03.860Z,98753.77
2019-05-18T10:11:38.795Z,98751.56
2019-05-18T10:13:13.898Z,98753.11
2019-05-18T10:14:48.532Z,98749.98
2019-05-18T10:16:24.833Z,98749.86
2019-05-18T10:17:59.084Z,98751.92
2019-05-18T10:19:33.921Z,98749.66
2019-05-18T10:21:08.561Z,98750.69
2019-05-18T10:22:55.533Z,98746.09
2019-05-18T10:24:19.004Z,98747.02
2019-05-18T10:25:53.773Z,98750.53
2019-05-18T10:27:28.237Z,98746.10
2019-05-18T10:29:04.633Z,98741.63
2019-05-18T10:30:38.961Z,98736.25
2019-05-18T10:32:14.000Z,98744.20
2019-05-18T10:33:48.652Z,98739.27
2019-05-18T10:35:23.418Z,98740.51
2019-05-18T10:36:59.914Z,98736.42
2019-05-18T10:38:34.748Z,98739.73
2019-05-18T10:40:10.281Z,98737.36
2019-05-18T10:41:45.044Z,98730.10
2019-05-18T10:43:19.297Z,98729.22
2019-05-18T10:44:54.128Z,98724.50
2019-05-18T10:46:28.868Z,98730.00
2019-05-18T10:48:03.711Z,98723.06
2019-05-18T10:49:37.987Z,98720.45
2019-05-18T10:51:12.757Z,98718.03
2019-05-18T10:52:47.403Z,98717.97
2019-05-18T10:54:22.207Z,98718.91
2019-05-18T10:55:56.414Z,98722.58
2019-05-18T10:57:31.293Z,98720.62
2019-05-18T10:59:05.905Z,98724.49
2019-05-18T11:00:40.737Z,98718.42
2019-05-18T11:02:15.020Z,98716.47
2019-05-18T11:03:49.860Z,98715.32
2019-05-18T11:05:24.396Z,98717.70
2019-05-18T11:06:59.157Z,98717.52
2019-05-18T11:08:33.410Z,98719.39
2019-05-18T11:10:09.683Z,98720.57
2019-05-18T11:11:44.513Z,98721.44
2019-05-18T11:13:19.272Z,98716.57
2019-05-18T11:14:53.539Z,98713.91
2019-05-18T11:16:28.662Z,98715.66
2019-05-18T11:18:03.081Z,98709.50
2019-05-18T11:19:38.308Z,98711.62
2019-05-18T11:21:12.634Z,98710.24
2019-05-18T11:22:47.572Z,98712.50
2019-05-18T11:24:22.114Z,98704.78
2019-05-18T11:25:56.822Z,98704.78
2019-05-18T11:27:31.144Z,98698.29
2019-05-18T11:29:06.033Z,98691.64
2019-05-18T11:30:40.538Z,98690.48
2019-05-18T11:32:15.415Z,98690.27
2019-05-18T11:33:49.688Z,98688.36
2019-05-18T11:35:24.555Z,98682.66
2019-05-18T11:37:02.618Z,98676.76
2019-05-18T11:38:35.747Z,98678.75
2019-05-18T11:40:12.467Z,98668.66
2019-05-18T11:41:47.225Z,98664.34
2019-05-18T11:43:21.878Z,98667.53
2019-05-18T11:44:56.825Z,98663.53
2019-05-18T11:46:31.033Z,98655.73
2019-05-18T11:48:05.800Z,98661.75
2019-05-18T11:49:42.408Z,98661.03
2019-05-18T11:51:17.176Z,98661.95
2019-05-18T11:52:51.387Z,98667.70
2019-05-18T11:54:27.393Z,98665.13
2019-05-18T11:56:01.842Z,98666.19
2019-05-18T11:57:36.610Z,98660.26
2019-05-18T11:59:10.817Z,98661.72
2019-05-18T12:00:45.595Z,98663.04
2019-05-18T12:02:20.177Z,98665.91
2019-05-18T12:03:54.945Z,98663.14
2019-05-18T12:05:29.228Z,98660.80
2019-05-18T12:07:04.118Z,98658.97
2019-05-18T12:08:38.654Z,98658.37
2019-05-18T12:10:13.722Z,98652.70
2019-05-18T12:11:47.945Z,98653.88
2019-05-18T12:13:22.816Z,98659.86
2019-05-18T12:14:57.327Z,98659.33
2019-05-18T12:16:32.083Z,98658.30
2019-05-18T12:18:06.337Z,98648.09
2019-05-18T12:19:41.154Z,98649.30
2019-05-18T12:21:15.789Z,98642.17
2019-05-18T12:22:50.549Z,98643.09
2019-05-18T12:24:24.881Z,98641.05
2019-05-18T12:25:59.651Z,98641.47
2019-05-18T12:27:34.274Z,98638.63
2019-05-18T12:29:09.032Z,98636.92
2019-05-18T12:30:43.246Z,98628.66
2019-05-18T12:32:18.019Z,98629.59
2019-05-18T12:33:52.534Z,98624.45
2019-05-18T12:35:27.295Z,98626.09
2019-05-18T12:37:02.014Z,98626.53
2019-05-18T12:38:36.768Z,98630.16
2019-05-18T12:40:13.285Z,98635.66
2019-05-18T12:41:48.094Z,98636.98
2019-05-18T12:43:22.323Z,98636.34
2019-05-18T12:44:57.115Z,98640.73
2019-05-18T12:46:31.748Z,98635.55
2019-05-18T12:48:06.497Z,98639.72
2019-05-18T12:49:40.768Z,98641.77
2019-05-18T12:51:15.593Z,98638.27
2019-05-18T12:52:50.096Z,98640.17
2019-05-18T12:54:30.906Z,98633.27
2019-05-18T12:56:02.365Z,98623.34
2019-05-18T12:57:37.752Z,98623.23
2019-05-18T12:59:12.368Z,98620.81
2019-05-18T13:00:47.135Z,98624.77
2019-05-18T13:02:22.941Z,98618.27
2019-05-18T13:03:57.712Z,98559.24
2019-05-18T13:05:32.509Z,98606.55
2019-05-18T13:07:08.021Z,98611.52
2019-05-18T13:08:42.240Z,98606.30
2019-05-18T13:10:17.961Z,98602.52
2019-05-18T13:11:52.484Z,98602.68
2019-05-18T13:13:27.237Z,98557.84
2019-05-18T13:15:01.458Z,98597.38
2019-05-18T13:16:36.219Z,98600.11
2019-05-18T13:18:10.853Z,98596.59
2019-05-18T13:19:45.614Z,98600.63
2019-05-18T13:21:19.900Z,98591.98
2019-05-18T13:22:54.658Z,98595.48
2019-05-18T13:24:42.982Z,98592.02
2019-05-18T13:26:05.534Z,98582.05
2019-05-18T13:27:40.226Z,98583.84
2019-05-18T13:29:15.206Z,98585.20
2019-05-18T13:30:49.945Z,98577.86
2019-05-18T13:32:24.711Z,98581.11
2019-05-18T13:33:58.936Z,98582.38
2019-05-18T13:35:33.730Z,98581.05
2019-05-18T13:37:08.231Z,98582.11
2019-05-18T13:38:42.762Z,98579.17
2019-05-18T13:40:19.911Z,98578.88
2019-05-18T13:41:54.729Z,98579.66
2019-05-18T13:43:29.247Z,98579.20
2019-05-18T13:45:05.013Z,98577.36
2019-05-18T13:46:39.221Z,98582.02
2019-05-18T13:48:15.191Z,98582.19
2019-05-18T13:49:49.691Z,98582.03
2019-05-18T13:51:24.428Z,98582.23
2019-05-18T13:52:58.638Z,98582.69
2019-05-18T13:54:33.457Z,98577.27
2019-05-18T13:56:08.165Z,98579.26
2019-05-18T13:57:43.000Z,98576.84
2019-05-18T13:59:17.197Z,98578.01
2019-05-18T14:00:52.001Z,98572.14
2019-05-18T14:02:26.515Z,98573.85
2019-05-18T14:04:01.337Z,98572.18
2019-05-18T14:05:35.673Z,98571.94
2019-05-18T14:07:10.440Z,98567.83
2019-05-18T14:08:45.090Z,98568.98
2019-05-18T14:10:20.251Z,98583.28
2019-05-18T14:11:54.475Z,98579.88
2019-05-18T14:13:29.237Z,98577.69
2019-05-18T14:15:04.790Z,98575.34
2019-05-18T14:16:39.656Z,98578.30
2019-05-18T14:18:13.900Z,98575.89
2019-05-18T14:19:48.673Z,98569.11
2019-05-18T14:21:23.177Z,98576.67
2019-05-18T14:22:57.941Z,98577.09
2019-05-18T14:24:32.599Z,98577.57
2019-05-18T14:26:07.364Z,98576.42
2019-05-18T14:27:41.733Z,98575.31
2019-05-18T14:29:16.505Z,98576.13
2019-05-18T14:30:50.771Z,98569.97
2019-05-18T14:32:25.530Z,98569.73
2019-05-18T14:34:00.019Z,98568.91
2019-05-18T14:35:34.780Z,98566.17
2019-05-18T14:37:09.096Z,98562.88
2019-05-18T14:38:43.858Z,98566.89
2019-05-18T14:40:18.717Z,98567.20
2019-05-18T14:41:53.448Z,98564.66
2019-05-18T14:43:27.699Z,98563.25
2019-05-18T14:45:02.531Z,98563.72
2019-05-18T14:46:36.948Z,98563.19
2019-05-18T14:48:11.727Z,98564.19
2019-05-18T14:49:45.981Z,98560.09
2019-05-18T14:51:20.759Z,98563.18
2019-05-18T14:52:55.217Z,98568.20
2019-05-18T14:54:30.025Z,98566.14
2019-05-18T14:56:05.911Z,98570.17
2019-05-18T14:57:41.689Z,98566.97
2019-05-18T14:59:16.009Z,98566.63
2019-05-18T15:00:50.872Z,98564.97
2019-05-18T15:02:25.149Z,98561.23
2019-05-18T15:03:59.916Z,98564.61
2019-05-18T15:05:34.310Z,98559.87
2019-05-18T15:07:09.112Z,98558.27
2019-05-18T15:08:43.392Z,98551.48
2019-05-18T15:10:18.757Z,98551.89
2019-05-18T15:11:53.193Z,98549.19
2019-05-18T15:13:28.004Z,98551.91
2019-05-18T15:15:02.292Z,98557.61
2019-05-18T15:16:37.010Z,98558.16
2019-05-18T15:18:16.073Z,98562.58
2019-05-18T15:19:50.831Z,98558.59
2019-05-18T15:21:25.041Z,98555.12
2019-05-18T15:22:59.868Z,98553.73
2019-05-18T15:24:34.341Z,98552.87
2019-05-18T15:26:09.180Z,98560.23
2019-05-18T15:27:43.396Z,98559.39
2019-05-18T15:29:18.218Z,98562.84
2019-05-18T15:30:52.717Z,98557.62
2019-05-18T15:32:27.524Z,98559.36
2019-05-18T15:34:03.341Z,98560.81
2019-05-18T15:35:38.047Z,98553.82
2019-05-18T15:37:12.614Z,98557.23
2019-05-18T15:38:47.453Z,98556.14
2019-05-18T15:40:21.682Z,98554.06
2019-05-18T15:41:56.513Z,98555.27
2019-05-18T15:43:31.347Z,98556.13
2019-05-18T15:45:08.115Z,98557.45
2019-05-18T15:46:42.313Z,98554.33
2019-05-18T15:48:17.197Z,98537.00
2019-05-18T15:49:51.607Z,98556.95
2019-05-18T15:51:26.431Z,98561.84
2019-05-18T15:53:00.582Z,98556.97
2019-05-18T15:54:36.285Z,98558.41
2019-05-18T15:56:11.205Z,98562.73
2019-05-18T15:57:45.959Z,98562.02
2019-05-18T15:59:20.178Z,98560.48
2019-05-18T16:00:54.991Z,98564.48
2019-05-18T16:02:29.473Z,98563.05
2019-05-18T16:04:06.545Z,98557.31
2019-05-18T16:05:40.090Z,98564.75
2019-05-18T16:07:14.900Z,98561.60
2019-05-18T16:08:49.381Z,98568.69
2019-05-18T16:10:24.141Z,98567.04
2019-05-18T16:11:58.949Z,98563.13
2019-05-18T16:13:33.829Z,98567.55
2019-05-18T16:15:09.360Z,98568.11
2019-05-18T16:16:44.124Z,98562.77
2019-05-18T16:18:18.322Z,98567.02
2019-05-18T16:19:53.208Z,98563.73
2019-05-18T16:21:27.862Z,98570.52
2019-05-18T16:23:02.775Z,98562.73
2019-05-18T16:24:36.983Z,98564.69
2019-05-18T16:26:21.225Z,98563.52
2019-05-18T16:27:47.972Z,98551.38
2019-05-18T16:29:22.830Z,98559.46
2019-05-18T16:30:57.034Z,98554.27
2019-05-18T16:32:31.920Z,98559.02
2019-05-18T16:34:06.547Z,98561.89
2019-05-18T16:35:41.323Z,98568.86
2019-05-18T16:37:15.599Z,98567.29
2019-05-18T16:38:51.955Z,98571.07
2019-05-18T16:40:26.351Z,98570.41
2019-05-18T16:42:01.113Z,98564.75
2019-05-18T16:43:35.342Z,98565.20
2019-05-18T16:45:11.183Z,98563.59
2019-05-18T16:46:45.638Z,98565.23
2019-05-18T16:48:21.572Z,98558.34
2019-05-18T16:49:57.254Z,98557.06
2019-05-18T16:51:32.099Z,98557.11
2019-05-18T16:53:06.412Z,98557.00
2019-05-18T16:54:41.220Z,98558.44
2019-05-18T16:56:15.433Z,98561.13
2019-05-18T16:57:50.276Z,98565.91
2019-05-18T16:59:24.655Z,98561.95
2019-05-18T17:01:00.907Z,98565.69
2019-05-18T17:02:35.117Z,98562.25
2019-05-18T17:04:09.880Z,98563.40
2019-05-18T17:05:44.442Z,98559.95
2019-05-18T17:07:19.260Z,98568.82
2019-05-18T17:08:53.465Z,98568.38
2019-05-18T17:10:29.706Z,98563.81
2019-05-18T17:12:04.021Z,98564.43
2019-05-18T17:13:38.898Z,98568.41
2019-05-18T17:15:13.514Z,98562.34
2019-05-18T17:16:48.049Z,98561.70
2019-05-18T17:18:22.526Z,98561.34
2019-05-18T17:19:57.313Z,98561.45
2019-05-18T17:21:31.526Z,98564.20
2019-05-18T17:23:06.370Z,98563.69
2019-05-18T17:24:40.985Z,98560.73
2019-05-18T17:26:15.856Z,98565.00
2019-05-18T17:27:50.564Z,98561.70
2019-05-18T17:29:25.411Z,98561.61
2019-05-18T17:30:59.962Z,98565.54
2019-05-18T17:32:34.494Z,98566.39
2019-05-18T17:34:08.700Z,98566.38
2019-05-18T17:35:59.091Z,98570.47
2019-05-18T17:37:19.669Z,98572.58
2019-05-18T17:38:54.477Z,98572.48
2019-05-18T17:40:28.717Z,98574.63
2019-05-18T17:42:05.227Z,98575.85
2019-05-18T17:43:39.955Z,98578.83
2019-05-18T17:45:15.219Z,98575.12
2019-05-18T17:46:49.428Z,98573.46
2019-05-18T17:48:24.219Z,98582.19
2019-05-18T17:49:58.770Z,98575.49
2019-05-18T17:51:33.531Z,98580.48
2019-05-18T17:53:09.449Z,98585.36
2019-05-18T17:54:44.210Z,98584.11
2019-05-18T17:56:18.778Z,98583.89
2019-05-18T17:57:53.541Z,98580.00
2019-05-18T17:59:27.957Z,98582.31
2019-05-18T18:01:02.759Z,98583.25
2019-05-18T18:02:40.523Z,98588.84
2019-05-18T18:04:15.361Z,98587.56
2019-05-18T18:05:49.584Z,98596.09
2019-05-18T18:07:25.368Z,98596.83
2019-05-18T18:08:59.921Z,98601.80
2019-05-18T18:10:34.713Z,98599.73
2019-05-18T18:12:08.934Z,98605.19
2019-05-18T18:13:43.765Z,98606.66
2019-05-18T18:15:21.252Z,98609.55
2019-05-18T18:16:56.028Z,98611.84
2019-05-18T18:18:30.289Z,98604.40
2019-05-18T18:20:07.268Z,98610.80
2019-05-18T18:21:41.620Z,98612.20
2019-05-18T18:23:16.666Z,98611.97
2019-05-18T18:24:51.804Z,98626.84
2019-05-18T18:26:26.697Z,98620.89
2019-05-18T18:28:01.287Z,98625.45
2019-05-18T18:29:36.109Z,98629.05
2019-05-18T18:31:10.556Z,98628.12
2019-05-18T18:32:45.474Z,98629.08
2019-05-18T18:34:20.038Z,98634.24